Natchez, Mississippi
Current Conditions -  °F | °C
As of 7:35 AM on Saturday 01 Nov 2014 (Local Time) from KHEZ Reporting Station
Clear Clear  
Wind Chill: 30°   Ceiling: Unl
Heat Index: 36°   Visibility: 10mi
Dew Point: 27°   Wind: 7mph
Humidity: 70%   Direction: 20°NNE
Pressure: 30.36"   Gusts: NA
Location:  31.56°N, 91.4°W
Report Text: KHEZ 011235Z AUTO 02006KT 10SM CLR 02/M03 A3036 RMK AO1
Loading
Personal Weather Stations






























Interactive Weather Map
Tropical Storm Tracking
New forecast layout! Learn more

10-Day Weather Forecast

Advertisements
Track Severe Weather on mobile